Time,TemperatureF,DewpointF,PressureIn,WindDirection,WindDirectionDegrees,WindSpeedMPH,WindSpeedGustMPH,Humidity,HourlyPrecipIn,Conditions,Clouds,dailyrainin,SolarRadiationWatts/m^2,SoftwareType,DateUTC
2013-08-18 00:08:00,62.2,60.0,30.11,NNE,30,0.0,0.0,92,0.00,,,0.00,0,weatherlink.com 1.10,2013-08-18 04:08:00,
2013-08-18 00:23:00,61.9,60.0,30.11,NNE,30,0.0,0.0,92,0.00,,,0.00,0,weatherlink.com 1.10,2013-08-18 04:23:00,
2013-08-18 00:38:00,61.6,60.0,30.11,NNE,30,0.0,0.0,93,0.00,,,0.00,0,weatherlink.com 1.10,2013-08-18 04:38:00,
2013-08-18 00:53:00,61.4,59.0,30.11,NNE,30,0.0,0.0,93,0.00,,,0.00,0,weatherlink.com 1.10,2013-08-18 04:53:00,
2013-08-18 01:08:00,61.0,59.0,30.11,NNE,30,0.0,0.0,93,0.00,,,0.00,0,weatherlink.com 1.10,2013-08-18 05:08:00,
2013-08-18 01:23:00,60.9,59.0,30.11,NNE,30,0.0,0.0,93,0.00,,,0.00,0,weatherlink.com 1.10,2013-08-18 05:23:00,
2013-08-18 01:38:00,60.8,59.0,30.11,NNE,30,0.0,0.0,94,0.00,,,0.00,0,weatherlink.com 1.10,2013-08-18 05:38:00,
2013-08-18 01:53:00,60.7,59.0,30.11,NNE,30,0.0,0.0,94,0.00,,,0.00,0,weatherlink.com 1.10,2013-08-18 05:53:00,
2013-08-18 02:08:00,60.6,59.0,30.11,NNE,30,0.0,0.0,94,0.00,,,0.00,0,weatherlink.com 1.10,2013-08-18 06:08:00,
2013-08-18 02:23:00,60.5,59.0,30.11,NNE,30,0.0,0.0,94,0.00,,,0.00,0,weatherlink.com 1.10,2013-08-18 06:23:00,
2013-08-18 02:38:00,60.3,59.0,30.10,NNE,30,0.0,0.0,94,0.00,,,0.00,0,weatherlink.com 1.10,2013-08-18 06:38:00,
2013-08-18 02:53:00,60.4,59.0,30.10,NNE,30,0.0,0.0,94,0.00,,,0.00,0,weatherlink.com 1.10,2013-08-18 06:53:00,
2013-08-18 03:08:00,60.6,59.0,30.10,NNE,30,0.0,0.0,94,0.00,,,0.00,0,weatherlink.com 1.10,2013-08-18 07:08:00,
2013-08-18 03:23:00,60.4,59.0,30.10,NNE,30,0.0,0.0,94,0.00,,,0.00,0,weatherlink.com 1.10,2013-08-18 07:23:00,
2013-08-18 03:38:00,60.0,58.0,30.10,NNE,30,0.0,0.0,93,0.00,,,0.00,0,weatherlink.com 1.10,2013-08-18 07:38:00,
2013-08-18 03:53:00,59.8,58.0,30.10,NNE,30,0.0,0.0,93,0.00,,,0.00,0,weatherlink.com 1.10,2013-08-18 07:53:00,
2013-08-18 04:08:00,59.5,58.0,30.10,NNE,30,0.0,0.0,94,0.00,,,0.00,0,weatherlink.com 1.10,2013-08-18 08:08:00,
2013-08-18 04:23:00,59.4,58.0,30.10,NNE,30,0.0,0.0,94,0.00,,,0.00,0,weatherlink.com 1.10,2013-08-18 08:23:00,
2013-08-18 04:38:00,59.4,58.0,30.10,NNE,30,0.0,0.0,94,0.00,,,0.00,0,weatherlink.com 1.10,2013-08-18 08:38:00,
2013-08-18 04:53:00,59.1,57.0,30.10,NNE,30,0.0,0.0,94,0.00,,,0.00,0,weatherlink.com 1.10,2013-08-18 08:53:00,
2013-08-18 05:08:00,59.2,58.0,30.10,NNE,30,0.0,0.0,94,0.00,,,0.00,0,weatherlink.com 1.10,2013-08-18 09:08:00,
2013-08-18 05:23:00,59.3,58.0,30.10,NNE,30,0.0,0.0,94,0.00,,,0.00,0,weatherlink.com 1.10,2013-08-18 09:23:00,
2013-08-18 05:38:00,59.0,57.0,30.10,NNE,30,0.0,0.0,94,0.00,,,0.00,0,weatherlink.com 1.10,2013-08-18 09:38:00,
2013-08-18 05:53:00,58.9,58.0,30.10,NNE,30,0.0,0.0,95,0.00,,,0.00,0,weatherlink.com 1.10,2013-08-18 09:53:00,
2013-08-18 06:08:00,58.9,58.0,30.10,NNE,30,0.0,0.0,95,0.00,,,0.00,0,weatherlink.com 1.10,2013-08-18 10:08:00,
2013-08-18 06:23:00,58.7,57.0,30.11,NNE,30,0.0,0.0,95,0.00,,,0.00,0,weatherlink.com 1.10,2013-08-18 10:23:00,
2013-08-18 06:38:00,58.6,57.0,30.11,NNE,30,0.0,0.0,95,0.00,,,0.00,0,weatherlink.com 1.10,2013-08-18 10:38:00,
2013-08-18 06:53:00,58.3,57.0,30.12,NNE,30,0.0,0.0,95,0.00,,,0.00,0,weatherlink.com 1.10,2013-08-18 10:53:00,
2013-08-18 07:08:00,58.5,57.0,30.13,NNE,30,0.0,0.0,95,0.00,,,0.00,5,weatherlink.com 1.10,2013-08-18 11:08:00,
2013-08-18 07:23:00,58.8,57.0,30.13,NNE,30,0.0,0.0,95,0.00,,,0.00,16,weatherlink.com 1.10,2013-08-18 11:23:00,
2013-08-18 07:38:00,58.7,57.0,30.14,NNE,30,0.0,0.0,95,0.00,,,0.00,30,weatherlink.com 1.10,2013-08-18 11:38:00,
2013-08-18 07:53:00,58.9,58.0,30.14,NNE,30,0.0,0.0,95,0.00,,,0.00,49,weatherlink.com 1.10,2013-08-18 11:53:00,
2013-08-18 08:08:00,59.8,59.0,30.14,NNE,30,0.0,0.0,96,0.00,,,0.00,60,weatherlink.com 1.10,2013-08-18 12:08:00,
2013-08-18 08:23:00,60.2,59.0,30.15,NNE,30,0.0,0.0,95,0.00,,,0.00,58,weatherlink.com 1.10,2013-08-18 12:23:00,
2013-08-18 08:38:00,60.8,60.0,30.15,NNE,30,0.0,0.0,96,0.00,,,0.00,91,weatherlink.com 1.10,2013-08-18 12:38:00,
2013-08-18 08:54:00,61.6,61.0,30.16,NNE,30,0.0,0.0,96,0.00,,,0.00,113,weatherlink.com 1.10,2013-08-18 12:54:00,
2013-08-18 09:09:00,62.9,62.0,30.16,NNE,30,0.0,0.0,96,0.00,,,0.00,243,weatherlink.com 1.10,2013-08-18 13:09:00,
2013-08-18 09:24:00,64.0,63.0,30.16,NNE,30,0.0,0.0,96,0.00,,,0.00,199,weatherlink.com 1.10,2013-08-18 13:24:00,
2013-08-18 09:39:00,65.2,64.0,30.16,East,101,0.0,0.0,94,0.00,,,0.00,216,weatherlink.com 1.10,2013-08-18 13:39:00,
2013-08-18 09:54:00,66.3,64.0,30.16,ENE,74,0.0,0.0,91,0.00,,,0.00,232,weatherlink.com 1.10,2013-08-18 13:54:00,
2013-08-18 10:09:00,68.1,65.0,30.16,SSE,159,0.0,0.0,89,0.00,,,0.00,260,weatherlink.com 1.10,2013-08-18 14:09:00,
2013-08-18 10:24:00,69.6,65.0,30.17,SSE,159,0.0,0.0,86,0.00,,,0.00,216,weatherlink.com 1.10,2013-08-18 14:24:00,
2013-08-18 10:39:00,70.8,65.0,30.17,SSE,159,0.0,0.0,83,0.00,,,0.00,668,weatherlink.com 1.10,2013-08-18 14:39:00,
2013-08-18 10:54:00,72.6,66.0,30.17,SSE,149,0.0,0.0,79,0.00,,,0.00,547,weatherlink.com 1.10,2013-08-18 14:54:00,
2013-08-18 11:09:00,74.1,67.0,30.17,South,172,0.0,0.0,78,0.00,,,0.00,671,weatherlink.com 1.10,2013-08-18 15:09:00,
2013-08-18 11:24:00,75.6,67.0,30.17,SW,222,0.0,0.0,74,0.00,,,0.00,680,weatherlink.com 1.10,2013-08-18 15:24:00,
2013-08-18 11:39:00,76.3,65.0,30.16,North,9,0.0,0.0,69,0.00,,,0.00,708,weatherlink.com 1.10,2013-08-18 15:39:00,
2013-08-18 11:54:00,77.0,64.0,30.16,North,351,0.0,0.0,64,0.00,,,0.00,749,weatherlink.com 1.10,2013-08-18 15:54:00,
2013-08-18 12:09:00,77.7,67.0,30.16,SW,223,0.0,0.0,69,0.00,,,0.00,793,weatherlink.com 1.10,2013-08-18 16:09:00,
2013-08-18 12:24:00,78.7,63.0,30.15,South,190,0.0,0.0,59,0.00,,,0.00,809,weatherlink.com 1.10,2013-08-18 16:24:00,
2013-08-18 12:39:00,78.4,67.0,30.15,NNW,338,0.0,0.0,67,0.00,,,0.00,754,weatherlink.com 1.10,2013-08-18 16:39:00,
2013-08-18 12:54:00,78.6,66.0,30.14,ESE,113,0.0,0.0,65,0.00,,,0.00,909,weatherlink.com 1.10,2013-08-18 16:54:00,
2013-08-18 13:09:00,79.2,66.0,30.14,NNE,14,0.0,0.0,65,0.00,,,0.00,227,weatherlink.com 1.10,2013-08-18 17:09:00,
2013-08-18 13:25:00,80.0,62.0,30.14,NW,318,0.0,0.0,55,0.00,,,0.00,916,weatherlink.com 1.10,2013-08-18 17:25:00,
2013-08-18 13:40:00,79.9,65.0,30.14,SSE,150,0.0,0.0,61,0.00,,,0.00,983,weatherlink.com 1.10,2013-08-18 17:40:00,
2013-08-18 13:55:00,79.8,63.0,30.13,NW,323,0.0,0.0,57,0.00,,,0.00,355,weatherlink.com 1.10,2013-08-18 17:55:00,
2013-08-18 14:10:00,80.5,62.0,30.13,NNW,334,0.0,0.0,54,0.00,,,0.00,956,weatherlink.com 1.10,2013-08-18 18:10:00,
2013-08-18 14:25:00,80.7,64.0,30.13,NNW,327,0.0,0.0,57,0.00,,,0.00,316,weatherlink.com 1.10,2013-08-18 18:25:00,
2013-08-18 14:40:00,81.0,65.0,30.12,SSW,192,0.0,0.0,58,0.00,,,0.00,998,weatherlink.com 1.10,2013-08-18 18:40:00,
2013-08-18 14:55:00,81.1,65.0,30.12,West,268,0.0,0.0,59,0.00,,,0.00,967,weatherlink.com 1.10,2013-08-18 18:55:00,
2013-08-18 15:10:00,81.4,65.0,30.12,SW,235,0.0,0.0,58,0.00,,,0.00,276,weatherlink.com 1.10,2013-08-18 19:10:00,
2013-08-18 15:25:00,81.0,63.0,30.12,NNW,336,0.0,0.0,54,0.00,,,0.00,1027,weatherlink.com 1.10,2013-08-18 19:25:00,
2013-08-18 15:40:00,80.2,65.0,30.11,NNW,336,0.0,0.0,60,0.00,,,0.00,255,weatherlink.com 1.10,2013-08-18 19:40:00,
2013-08-18 15:55:00,79.8,62.0,30.11,NE,50,0.0,0.0,54,0.00,,,0.00,816,weatherlink.com 1.10,2013-08-18 19:55:00,
2013-08-18 16:10:00,80.9,64.0,30.10,NE,51,0.0,0.0,57,0.00,,,0.00,861,weatherlink.com 1.10,2013-08-18 20:10:00,
2013-08-18 16:25:00,80.2,66.0,30.10,NE,51,0.0,0.0,62,0.00,,,0.00,169,weatherlink.com 1.10,2013-08-18 20:25:00,
2013-08-18 16:40:00,81.3,66.0,30.09,East,89,0.0,0.0,59,0.00,,,0.00,670,weatherlink.com 1.10,2013-08-18 20:40:00,
2013-08-18 16:55:00,81.8,63.0,30.09,North,355,0.0,0.0,54,0.00,,,0.00,647,weatherlink.com 1.10,2013-08-18 20:55:00,
2013-08-18 17:10:00,82.6,65.0,30.09,North,11,0.0,0.0,56,0.00,,,0.00,624,weatherlink.com 1.10,2013-08-18 21:10:00,
2013-08-18 17:25:00,82.3,65.0,30.09,NNE,25,0.0,0.0,56,0.00,,,0.00,223,weatherlink.com 1.10,2013-08-18 21:25:00,
2013-08-18 17:40:00,82.3,65.0,30.09,NNE,25,0.0,0.0,57,0.00,,,0.00,489,weatherlink.com 1.10,2013-08-18 21:40:00,
2013-08-18 17:55:00,81.9,66.0,30.08,NNE,25,0.0,0.0,58,0.00,,,0.00,438,weatherlink.com 1.10,2013-08-18 21:55:00,
2013-08-18 18:10:00,82.1,65.0,30.08,NW,314,0.0,0.0,57,0.00,,,0.00,392,weatherlink.com 1.10,2013-08-18 22:10:00,
2013-08-18 18:25:00,81.4,65.0,30.08,NW,314,0.0,0.0,58,0.00,,,0.00,343,weatherlink.com 1.10,2013-08-18 22:25:00,
2013-08-18 18:40:00,81.6,66.0,30.08,NW,314,0.0,0.0,59,0.00,,,0.00,290,weatherlink.com 1.10,2013-08-18 22:40:00,
2013-08-18 18:55:00,81.6,65.0,30.08,NW,314,0.0,0.0,58,0.00,,,0.00,234,weatherlink.com 1.10,2013-08-18 22:55:00,
2013-08-18 19:10:00,80.4,65.0,30.07,NW,313,0.0,0.0,60,0.00,,,0.00,188,weatherlink.com 1.10,2013-08-18 23:10:00,
2013-08-18 19:25:00,80.5,65.0,30.07,NW,313,0.0,0.0,60,0.00,,,0.00,132,weatherlink.com 1.10,2013-08-18 23:25:00,
2013-08-18 19:40:00,79.4,65.0,30.07,NW,313,0.0,0.0,61,0.00,,,0.00,44,weatherlink.com 1.10,2013-08-18 23:40:00,
2013-08-18 19:55:00,77.1,63.0,30.07,SE,130,0.0,0.0,63,0.00,,,0.00,33,weatherlink.com 1.10,2013-08-18 23:55:00,
2013-08-18 20:10:00,74.7,63.0,30.07,SE,130,0.0,0.0,66,0.00,,,0.00,25,weatherlink.com 1.10,2013-08-19 00:10:00,
2013-08-18 20:25:00,73.4,63.0,30.07,SE,130,0.0,0.0,70,0.00,,,0.00,12,weatherlink.com 1.10,2013-08-19 00:25:00,
2013-08-18 20:40:00,72.0,61.0,30.08,SE,130,0.0,0.0,68,0.00,,,0.00,0,weatherlink.com 1.10,2013-08-19 00:40:00,
2013-08-18 20:55:00,70.8,61.0,30.08,SE,130,0.0,0.0,71,0.00,,,0.00,0,weatherlink.com 1.10,2013-08-19 00:55:00,
2013-08-18 21:10:00,69.5,61.0,30.09,SE,130,0.0,0.0,73,0.00,,,0.00,0,weatherlink.com 1.10,2013-08-19 01:10:00,
2013-08-18 21:25:00,68.7,60.0,30.09,SE,130,0.0,0.0,74,0.00,,,0.00,0,weatherlink.com 1.10,2013-08-19 01:25:00,
2013-08-18 21:40:00,68.0,60.0,30.09,SE,130,0.0,0.0,75,0.00,,,0.00,0,weatherlink.com 1.10,2013-08-19 01:40:00,
2013-08-18 21:55:00,67.4,59.0,30.10,SE,130,0.0,0.0,75,0.00,,,0.00,0,weatherlink.com 1.10,2013-08-19 01:55:00,
2013-08-18 22:10:00,66.8,59.0,30.10,SE,130,0.0,0.0,76,0.00,,,0.00,0,weatherlink.com 1.10,2013-08-19 02:10:00,
2013-08-18 22:25:00,66.4,59.0,30.10,SE,130,0.0,0.0,78,0.00,,,0.00,0,weatherlink.com 1.10,2013-08-19 02:25:00,
2013-08-18 22:40:00,65.8,60.0,30.11,SE,130,0.0,0.0,80,0.00,,,0.00,0,weatherlink.com 1.10,2013-08-19 02:40:00,
2013-08-18 22:55:00,65.4,59.0,30.10,SE,130,0.0,0.0,80,0.00,,,0.00,0,weatherlink.com 1.10,2013-08-19 02:55:00,
2013-08-18 23:10:00,65.1,60.0,30.10,SE,130,0.0,0.0,82,0.00,,,0.00,0,weatherlink.com 1.10,2013-08-19 03:10:00,
2013-08-18 23:25:00,64.9,59.0,30.10,SE,130,0.0,0.0,82,0.00,,,0.00,0,weatherlink.com 1.10,2013-08-19 03:25:00,
2013-08-18 23:40:00,64.7,60.0,30.11,SE,130,0.0,0.0,84,0.00,,,0.00,0,weatherlink.com 1.10,2013-08-19 03:40:00,
2013-08-18 23:55:00,64.2,59.0,30.11,SE,130,0.0,0.0,84,0.00,,,0.00,0,weatherlink.com 1.10,2013-08-19 03:55:00,